createdAt,value
2022-10-20T00:00:19.542Z,97.41
2022-10-20T00:02:46.160Z,97.92
2022-10-20T00:05:13.066Z,97.81
2022-10-20T00:07:39.591Z,97.48
2022-10-20T00:10:06.580Z,98.00
2022-10-20T00:12:33.388Z,98.19
2022-10-20T00:15:00.114Z,98.01
2022-10-20T00:17:26.742Z,97.84
2022-10-20T00:19:53.335Z,97.74
2022-10-20T00:22:19.826Z,98.11
2022-10-20T00:24:46.378Z,98.24
2022-10-20T00:27:12.933Z,97.82
2022-10-20T00:29:39.496Z,98.70
2022-10-20T00:32:05.997Z,98.37
2022-10-20T00:34:33.281Z,98.41
2022-10-20T00:36:59.780Z,98.22
2022-10-20T00:39:26.365Z,98.62
2022-10-20T00:41:52.846Z,98.38
2022-10-20T00:44:52.265Z,99.07
2022-10-20T00:47:37.476Z,98.79
2022-10-20T00:50:10.329Z,98.92
2022-10-20T00:52:38.957Z,98.85
2022-10-20T00:55:08.356Z,99.02
2022-10-20T00:57:35.881Z,99.14
2022-10-20T01:00:04.451Z,99.64
2022-10-20T01:02:31.096Z,99.58
2022-10-20T01:04:57.810Z,99.99
2022-10-20T01:07:24.436Z,99.86
2022-10-20T01:09:51.069Z,100.00
2022-10-20T01:12:37.186Z,100.00
2022-10-20T01:15:09.897Z,99.87
2022-10-20T01:17:49.733Z,100.00
2022-10-20T01:20:19.050Z,100.00
2022-10-20T01:22:51.673Z,99.83
2022-10-20T01:25:33.608Z,99.82
2022-10-20T01:28:11.215Z,99.97
2022-10-20T01:30:44.871Z,100.00
2022-10-20T01:33:20.894Z,100.00
2022-10-20T01:36:06.495Z,100.00
2022-10-20T01:38:53.216Z,100.00
2022-10-20T01:41:28.730Z,100.00
2022-10-20T01:43:56.401Z,99.97
2022-10-20T01:46:25.261Z,100.00
2022-10-20T01:48:52.056Z,100.00
2022-10-20T01:51:18.597Z,99.98
2022-10-20T01:53:45.135Z,100.00
2022-10-20T01:56:20.160Z,100.00
2022-10-20T01:59:19.111Z,100.00
2022-10-20T02:02:01.038Z,100.00
2022-10-20T02:04:36.921Z,100.00
2022-10-20T02:07:19.510Z,100.00
2022-10-20T02:12:24.701Z,100.00
2022-10-20T02:14:52.973Z,100.00
2022-10-20T02:17:20.860Z,100.00
2022-10-20T02:19:50.374Z,100.00
2022-10-20T02:22:19.735Z,100.00
2022-10-20T02:24:46.704Z,100.00
2022-10-20T02:27:17.035Z,100.00
2022-10-20T02:29:49.909Z,100.00
2022-10-20T02:32:18.065Z,100.00
2022-10-20T02:34:44.709Z,100.00
2022-10-20T02:37:11.549Z,100.00
2022-10-20T02:39:38.196Z,100.00
2022-10-20T02:42:04.750Z,100.00
2022-10-20T02:44:31.306Z,100.00
2022-10-20T02:46:57.906Z,100.00
2022-10-20T02:49:25.207Z,100.00
2022-10-20T02:51:51.797Z,100.00
2022-10-20T02:54:18.411Z,100.00
2022-10-20T02:56:44.979Z,100.00
2022-10-20T02:59:16.805Z,100.00
2022-10-20T03:01:45.568Z,100.00
2022-10-20T03:04:13.161Z,100.00
2022-10-20T03:06:41.101Z,100.00
2022-10-20T03:09:08.000Z,100.00
2022-10-20T03:11:34.675Z,100.00
2022-10-20T03:14:01.405Z,100.00
2022-10-20T03:16:28.177Z,100.00
2022-10-20T03:18:57.601Z,100.00
2022-10-20T03:21:25.476Z,100.00
2022-10-20T03:23:52.057Z,100.00
2022-10-20T03:26:18.576Z,100.00
2022-10-20T03:28:45.147Z,100.00
2022-10-20T03:31:11.761Z,100.00
2022-10-20T03:33:38.446Z,100.00
2022-10-20T03:36:06.112Z,100.00
2022-10-20T03:38:32.883Z,100.00
2022-10-20T03:40:59.407Z,100.00
2022-10-20T03:43:26.107Z,100.00
2022-10-20T03:46:03.069Z,100.00
2022-10-20T03:48:29.809Z,100.00
2022-10-20T03:50:56.692Z,100.00
2022-10-20T03:53:23.344Z,100.00
2022-10-20T03:55:49.806Z,100.00
2022-10-20T03:58:16.648Z,100.00
2022-10-20T04:00:43.308Z,100.00
2022-10-20T04:03:09.818Z,100.00
2022-10-20T04:05:36.511Z,100.00
2022-10-20T04:08:04.337Z,100.00
2022-10-20T04:10:30.952Z,100.00
2022-10-20T04:12:58.911Z,100.00
2022-10-20T04:15:25.861Z,100.00
2022-10-20T04:17:52.455Z,100.00
2022-10-20T04:20:19.329Z,100.00
2022-10-20T04:22:45.974Z,100.00
2022-10-20T04:25:12.665Z,100.00
2022-10-20T04:27:42.349Z,100.00
2022-10-20T04:30:10.028Z,100.00
2022-10-20T04:32:36.608Z,100.00
2022-10-20T04:35:03.665Z,100.00
2022-10-20T04:37:30.329Z,100.00
2022-10-20T04:39:58.056Z,100.00
2022-10-20T04:42:24.601Z,100.00
2022-10-20T04:44:51.244Z,100.00
2022-10-20T04:47:17.790Z,100.00
2022-10-20T04:49:44.395Z,100.00
2022-10-20T04:52:10.928Z,100.00
2022-10-20T04:54:37.740Z,100.00
2022-10-20T04:57:06.059Z,100.00
2022-10-20T04:59:32.635Z,100.00
2022-10-20T05:01:59.289Z,100.00
2022-10-20T05:04:25.982Z,100.00
2022-10-20T05:06:52.566Z,100.00
2022-10-20T05:09:19.152Z,100.00
2022-10-20T05:11:46.386Z,100.00
2022-10-20T05:14:13.437Z,100.00
2022-10-20T05:16:40.125Z,100.00
2022-10-20T05:19:06.710Z,100.00
2022-10-20T05:21:33.487Z,100.00
2022-10-20T05:24:01.927Z,100.00
2022-10-20T05:26:32.449Z,100.00
2022-10-20T05:28:59.010Z,100.00
2022-10-20T05:31:25.575Z,100.00
2022-10-20T05:33:54.835Z,100.00
2022-10-20T05:36:25.825Z,100.00
2022-10-20T05:38:54.323Z,100.00
2022-10-20T05:41:26.593Z,100.00
2022-10-20T05:43:57.564Z,100.00
2022-10-20T05:46:25.618Z,100.00
2022-10-20T05:48:57.543Z,100.00
2022-10-20T05:51:26.787Z,100.00
2022-10-20T05:53:56.033Z,100.00
2022-10-20T05:56:22.803Z,100.00
2022-10-20T05:58:50.014Z,100.00
2022-10-20T06:01:20.657Z,100.00
2022-10-20T06:03:52.087Z,100.00
2022-10-20T06:06:20.536Z,100.00
2022-10-20T06:08:48.081Z,100.00
2022-10-20T06:11:15.853Z,100.00
2022-10-20T06:13:45.044Z,100.00
2022-10-20T06:16:16.658Z,100.00
2022-10-20T06:18:43.930Z,100.00
2022-10-20T06:21:13.279Z,100.00
2022-10-20T06:23:39.919Z,100.00
2022-10-20T06:26:12.490Z,100.00
2022-10-20T06:28:41.118Z,100.00
2022-10-20T06:31:19.429Z,100.00
2022-10-20T06:33:46.733Z,100.00
2022-10-20T06:36:14.778Z,100.00
2022-10-20T06:38:42.024Z,100.00
2022-10-20T06:41:13.723Z,100.00
2022-10-20T06:43:40.363Z,100.00
2022-10-20T06:46:10.667Z,100.00
2022-10-20T06:48:37.458Z,100.00
2022-10-20T06:51:07.065Z,100.00
2022-10-20T06:53:35.567Z,100.00
2022-10-20T06:56:06.353Z,100.00
2022-10-20T06:58:34.897Z,100.00
2022-10-20T07:01:11.252Z,100.00
2022-10-20T07:03:39.184Z,100.00
2022-10-20T07:06:07.043Z,100.00
2022-10-20T07:08:35.676Z,100.00
2022-10-20T07:11:09.724Z,100.00
2022-10-20T07:13:37.639Z,100.00
2022-10-20T07:16:05.948Z,100.00
2022-10-20T07:18:32.827Z,99.87
2022-10-20T07:21:01.764Z,99.67
2022-10-20T07:23:29.473Z,99.86
2022-10-20T07:26:07.855Z,99.53
2022-10-20T07:28:35.952Z,99.12
2022-10-20T07:31:16.792Z,98.92
2022-10-20T07:33:43.453Z,98.48
2022-10-20T07:36:23.759Z,98.43
2022-10-20T07:38:52.363Z,98.27
2022-10-20T07:41:19.211Z,98.18
2022-10-20T07:43:45.804Z,97.89
2022-10-20T07:46:13.717Z,97.84
2022-10-20T07:48:40.781Z,97.62
2022-10-20T07:53:41.096Z,96.94
2022-10-20T07:56:08.175Z,97.06
2022-10-20T07:58:34.805Z,97.14
2022-10-20T08:01:01.861Z,95.91
2022-10-20T08:03:28.361Z,95.70
2022-10-20T08:05:54.861Z,96.08
2022-10-20T08:08:21.439Z,94.42
2022-10-20T08:10:47.966Z,94.71
2022-10-20T08:13:14.790Z,94.25
2022-10-20T08:15:41.410Z,93.09
2022-10-20T08:18:07.995Z,92.98
2022-10-20T08:20:41.240Z,93.10
2022-10-20T08:23:07.914Z,91.90
2022-10-20T08:25:34.488Z,91.51
2022-10-20T08:28:01.334Z,90.24
2022-10-20T08:30:27.808Z,90.48
2022-10-20T08:32:54.519Z,90.60
2022-10-20T08:35:22.219Z,89.88
2022-10-20T08:37:48.846Z,90.08
2022-10-20T08:40:19.324Z,89.46
2022-10-20T08:42:47.652Z,89.83
2022-10-20T08:45:16.377Z,90.19
2022-10-20T08:47:44.302Z,89.47
2022-10-20T08:50:13.898Z,89.37
2022-10-20T08:52:41.976Z,88.05
2022-10-20T08:55:30.145Z,87.68
2022-10-20T08:58:03.422Z,86.84
2022-10-20T09:00:31.770Z,86.79
2022-10-20T09:03:17.178Z,87.04
2022-10-20T09:05:48.635Z,86.58
2022-10-20T09:08:15.426Z,87.38
2022-10-20T09:10:48.603Z,87.95
2022-10-20T09:13:21.133Z,87.42
2022-10-20T09:15:58.914Z,87.12
2022-10-20T09:18:25.800Z,87.05
2022-10-20T09:20:56.240Z,87.31
2022-10-20T09:23:40.674Z,86.24
2022-10-20T09:26:37.388Z,86.74
2022-10-20T09:29:19.339Z,84.86
2022-10-20T09:31:54.818Z,86.04
2022-10-20T09:34:25.520Z,84.82
2022-10-20T09:37:11.587Z,84.75
2022-10-20T09:39:51.366Z,84.69
2022-10-20T09:42:23.325Z,83.97
2022-10-20T09:45:19.718Z,83.65
2022-10-20T09:47:50.547Z,83.37
2022-10-20T09:50:39.163Z,83.30
2022-10-20T09:53:15.622Z,82.63
2022-10-20T09:55:47.720Z,81.98
2022-10-20T09:58:21.585Z,81.94
2022-10-20T10:00:57.994Z,82.46
2022-10-20T10:03:25.224Z,81.98
2022-10-20T10:06:00.101Z,81.20
2022-10-20T10:08:40.611Z,80.89
2022-10-20T10:11:16.109Z,81.31
2022-10-20T10:13:45.070Z,80.99
2022-10-20T10:16:15.789Z,80.13
2022-10-20T10:18:48.514Z,79.93
2022-10-20T10:21:17.430Z,80.79
2022-10-20T10:23:56.127Z,80.41
2022-10-20T10:26:42.477Z,79.42
2022-10-20T10:29:28.276Z,79.33
2022-10-20T10:32:15.797Z,78.96
2022-10-20T10:35:02.374Z,78.90
2022-10-20T10:37:34.015Z,78.46
2022-10-20T10:40:11.628Z,77.84
2022-10-20T10:43:05.610Z,78.18
2022-10-20T10:45:44.539Z,77.55
2022-10-20T10:48:42.518Z,77.01
2022-10-20T10:51:21.171Z,76.72
2022-10-20T10:53:56.438Z,75.54
2022-10-20T10:56:36.126Z,75.18
2022-10-20T10:59:14.097Z,75.18
2022-10-20T11:01:57.832Z,74.23
2022-10-20T11:04:49.093Z,74.06
2022-10-20T11:07:32.394Z,73.64
2022-10-20T11:09:58.896Z,73.59
2022-10-20T11:12:49.828Z,72.24
2022-10-20T11:16:00.495Z,72.38
2022-10-20T11:18:54.411Z,71.62
2022-10-20T11:21:32.830Z,69.72
2022-10-20T11:24:02.023Z,68.86
2022-10-20T11:26:33.770Z,69.01
2022-10-20T11:29:03.311Z,69.03
2022-10-20T11:31:50.752Z,68.96
2022-10-20T11:34:26.359Z,67.38
2022-10-20T11:37:13.028Z,66.49
2022-10-20T11:39:45.741Z,66.89
2022-10-20T11:42:25.539Z,66.88
2022-10-20T11:44:55.212Z,65.56
2022-10-20T11:47:30.688Z,65.93
2022-10-20T11:49:58.906Z,65.64
2022-10-20T11:52:25.583Z,64.47
2022-10-20T11:55:17.965Z,64.31
2022-10-20T11:58:18.571Z,64.51
2022-10-20T12:01:06.054Z,64.30
2022-10-20T12:03:54.108Z,63.60
2022-10-20T12:06:35.842Z,63.80
2022-10-20T12:09:14.886Z,62.61
2022-10-20T12:11:56.533Z,62.73
2022-10-20T12:14:41.097Z,63.44
2022-10-20T12:17:43.238Z,63.23
2022-10-20T12:20:38.675Z,62.59
2022-10-20T12:23:05.409Z,64.04
2022-10-20T12:25:38.588Z,63.61
2022-10-20T12:28:25.551Z,64.07
2022-10-20T12:30:59.646Z,64.61
2022-10-20T12:33:37.048Z,65.14
2022-10-20T12:36:17.233Z,65.73
2022-10-20T12:38:50.760Z,65.88
2022-10-20T12:41:29.188Z,65.80
2022-10-20T12:44:02.492Z,65.88
2022-10-20T12:46:32.244Z,66.45
2022-10-20T12:49:10.997Z,66.81
2022-10-20T12:51:48.843Z,67.06
2022-10-20T12:54:30.930Z,66.47
2022-10-20T12:57:04.937Z,66.95
2022-10-20T12:59:31.380Z,67.54
2022-10-20T13:02:10.001Z,67.81
2022-10-20T13:04:57.830Z,67.72
2022-10-20T13:07:46.252Z,67.43
2022-10-20T13:10:32.844Z,68.23
2022-10-20T13:13:02.152Z,67.80
2022-10-20T13:15:39.076Z,67.63
2022-10-20T13:18:11.609Z,67.80
2022-10-20T13:20:46.868Z,67.74
2022-10-20T13:23:15.805Z,67.09
2022-10-20T13:25:52.347Z,66.84
2022-10-20T13:28:23.737Z,67.37
2022-10-20T13:30:56.127Z,67.04
2022-10-20T13:34:08.419Z,66.70
2022-10-20T13:37:02.884Z,67.05
2022-10-20T13:39:49.849Z,66.02
2022-10-20T13:42:50.610Z,66.41
2022-10-20T13:45:25.918Z,65.71
2022-10-20T13:48:32.063Z,65.31
2022-10-20T13:51:03.076Z,65.79
2022-10-20T13:53:40.233Z,65.78
2022-10-20T13:56:15.910Z,65.44
2022-10-20T13:59:14.772Z,65.27
2022-10-20T14:01:46.898Z,65.00
2022-10-20T14:04:39.666Z,65.64
2022-10-20T14:07:13.101Z,66.02
2022-10-20T14:09:45.341Z,65.64
2022-10-20T14:12:25.503Z,65.84
2022-10-20T14:14:59.268Z,66.35
2022-10-20T14:17:28.214Z,66.58
2022-10-20T14:20:27.463Z,66.83
2022-10-20T14:22:55.858Z,66.78
2022-10-20T14:25:22.931Z,67.32
2022-10-20T14:27:51.643Z,67.17
2022-10-20T14:30:18.807Z,67.74
2022-10-20T14:32:47.091Z,67.56
2022-10-20T14:35:13.951Z,67.70
2022-10-20T14:37:44.778Z,67.52
2022-10-20T14:40:24.356Z,68.14
2022-10-20T14:42:52.148Z,68.04
2022-10-20T14:45:27.521Z,68.11
2022-10-20T14:47:57.417Z,68.42
2022-10-20T14:50:34.081Z,68.26
2022-10-20T14:53:33.641Z,68.58
2022-10-20T14:56:02.781Z,68.51
2022-10-20T14:58:36.123Z,69.00
2022-10-20T15:01:24.815Z,69.24
2022-10-20T15:04:05.948Z,69.12
2022-10-20T15:06:32.926Z,69.24
2022-10-20T15:08:59.874Z,69.29
2022-10-20T15:11:28.265Z,69.20
2022-10-20T15:13:59.104Z,69.32
2022-10-20T15:16:43.799Z,69.48
2022-10-20T15:19:25.393Z,69.85
2022-10-20T15:22:10.234Z,70.40
2022-10-20T15:24:37.750Z,70.65
2022-10-20T15:27:05.759Z,70.51
2022-10-20T15:29:33.091Z,70.89
2022-10-20T15:31:59.891Z,71.32
2022-10-20T15:34:26.801Z,71.56
2022-10-20T15:36:53.408Z,72.24
2022-10-20T15:39:20.208Z,72.45
2022-10-20T15:41:49.068Z,72.73
2022-10-20T15:44:22.074Z,72.63
2022-10-20T15:46:53.065Z,72.51
2022-10-20T15:49:20.454Z,72.36
2022-10-20T15:51:47.905Z,72.53
2022-10-20T15:54:17.450Z,72.77
2022-10-20T15:56:44.561Z,72.39
2022-10-20T15:59:11.157Z,72.84
2022-10-20T16:01:38.145Z,73.02
2022-10-20T16:04:23.102Z,73.44
2022-10-20T16:06:52.471Z,73.67
2022-10-20T16:09:20.498Z,74.14
2022-10-20T16:11:47.113Z,74.16
2022-10-20T16:14:15.508Z,73.88
2022-10-20T16:16:44.896Z,73.29
2022-10-20T16:19:11.596Z,72.81
2022-10-20T16:21:38.146Z,72.31
2022-10-20T16:24:05.127Z,72.53
2022-10-20T16:26:31.792Z,72.48
2022-10-20T16:28:59.738Z,72.68
2022-10-20T16:31:26.456Z,73.29
2022-10-20T16:33:52.913Z,73.42
2022-10-20T16:36:21.594Z,73.52
2022-10-20T16:38:48.263Z,73.72
2022-10-20T16:41:15.473Z,73.60
2022-10-20T16:43:44.594Z,73.54
2022-10-20T16:46:12.983Z,73.59
2022-10-20T16:48:42.546Z,73.31
2022-10-20T16:51:11.888Z,73.58
2022-10-20T16:53:38.985Z,73.84
2022-10-20T16:56:06.783Z,73.53
2022-10-20T16:58:33.806Z,73.81
2022-10-20T17:01:09.821Z,73.70
2022-10-20T17:03:37.734Z,73.29
2022-10-20T17:06:07.004Z,73.22
2022-10-20T17:08:36.346Z,72.99
2022-10-20T17:11:06.416Z,72.37
2022-10-20T17:13:33.801Z,72.25
2022-10-20T17:16:05.349Z,71.99
2022-10-20T17:18:32.249Z,71.99
2022-10-20T17:20:59.004Z,71.97
2022-10-20T17:23:26.170Z,71.87
2022-10-20T17:25:53.534Z,71.75
2022-10-20T17:28:20.081Z,71.85
2022-10-20T17:30:48.006Z,71.77
2022-10-20T17:33:15.086Z,71.99
2022-10-20T17:35:47.491Z,72.44
2022-10-20T17:38:14.076Z,72.49
2022-10-20T17:40:40.730Z,73.27
2022-10-20T17:43:07.379Z,73.56
2022-10-20T17:45:36.270Z,73.75
2022-10-20T17:48:05.167Z,74.46
2022-10-20T17:50:31.819Z,74.84
2022-10-20T17:53:01.479Z,75.96
2022-10-20T17:55:28.926Z,76.47
2022-10-20T17:57:56.127Z,77.72
2022-10-20T18:00:43.969Z,77.91
2022-10-20T18:03:09.560Z,79.27
2022-10-20T18:05:36.663Z,79.71
2022-10-20T18:08:03.346Z,80.06
2022-10-20T18:10:30.111Z,80.87
2022-10-20T18:12:56.677Z,81.48
2022-10-20T18:15:23.309Z,81.72
2022-10-20T18:17:49.906Z,81.85
2022-10-20T18:20:16.617Z,82.80
2022-10-20T18:22:43.215Z,83.26
2022-10-20T18:25:09.998Z,83.37
2022-10-20T18:27:36.503Z,84.06
2022-10-20T18:30:03.192Z,84.80
2022-10-20T18:32:29.740Z,85.07
2022-10-20T18:34:56.432Z,85.70
2022-10-20T18:37:23.064Z,86.31
2022-10-20T18:39:49.795Z,86.47
2022-10-20T18:42:16.801Z,87.29
2022-10-20T18:44:43.378Z,87.89
2022-10-20T18:47:11.018Z,87.78
2022-10-20T18:49:37.595Z,88.30
2022-10-20T18:52:04.334Z,88.77
2022-10-20T18:54:31.020Z,89.25
2022-10-20T18:56:58.031Z,89.13
2022-10-20T18:59:24.664Z,89.90
2022-10-20T19:01:51.387Z,90.46
2022-10-20T19:04:18.080Z,90.61
2022-10-20T19:06:47.444Z,91.01
2022-10-20T19:09:16.999Z,91.25
2022-10-20T19:11:44.980Z,91.57
2022-10-20T19:14:12.490Z,91.79
2022-10-20T19:16:41.247Z,92.29
2022-10-20T19:19:08.459Z,92.48
2022-10-20T19:21:35.843Z,93.14
2022-10-20T19:24:05.954Z,93.23
2022-10-20T19:26:36.396Z,93.38
2022-10-20T19:29:06.622Z,93.69
2022-10-20T19:31:39.881Z,93.68
2022-10-20T19:34:09.917Z,93.94
2022-10-20T19:36:37.420Z,94.20
2022-10-20T19:39:06.472Z,94.54
2022-10-20T19:41:33.377Z,94.94
2022-10-20T19:44:00.031Z,94.80
2022-10-20T19:46:26.633Z,95.22
2022-10-20T19:48:53.339Z,95.52
2022-10-20T19:51:20.854Z,95.62
2022-10-20T19:53:48.315Z,95.67
2022-10-20T19:56:15.785Z,96.20
2022-10-20T19:58:45.735Z,96.44
2022-10-20T20:01:13.633Z,96.36
2022-10-20T20:03:40.404Z,97.05
2022-10-20T20:06:09.891Z,97.24
2022-10-20T20:08:37.033Z,96.91
2022-10-20T20:11:05.182Z,96.83
2022-10-20T20:13:31.966Z,97.17
2022-10-20T20:16:07.068Z,97.34
2022-10-20T20:18:35.427Z,97.25
2022-10-20T20:21:04.272Z,96.96
2022-10-20T20:23:41.227Z,97.45
2022-10-20T20:26:17.865Z,97.35
2022-10-20T20:28:44.385Z,97.71
2022-10-20T20:31:12.055Z,97.82
2022-10-20T20:33:38.868Z,97.80
2022-10-20T20:36:08.087Z,97.78
2022-10-20T20:38:37.727Z,98.03
2022-10-20T20:41:07.460Z,97.91
2022-10-20T20:43:37.320Z,98.14
2022-10-20T20:46:06.089Z,98.19
2022-10-20T20:48:35.455Z,98.37
2022-10-20T20:51:02.257Z,98.72
2022-10-20T20:53:29.322Z,99.03
2022-10-20T20:56:00.623Z,98.95
2022-10-20T20:58:30.973Z,99.08
2022-10-20T21:01:06.155Z,99.22
2022-10-20T21:03:33.479Z,99.36
2022-10-20T21:06:11.096Z,99.15
2022-10-20T21:08:39.693Z,99.25
2022-10-20T21:11:14.974Z,99.20
2022-10-20T21:13:42.976Z,99.43
2022-10-20T21:16:19.625Z,99.45
2022-10-20T21:18:48.844Z,99.48
2022-10-20T21:21:24.436Z,99.77
2022-10-20T21:23:51.789Z,99.92
2022-10-20T21:26:20.217Z,99.85
2022-10-20T21:28:47.649Z,100.00
2022-10-20T21:31:18.436Z,100.00
2022-10-20T21:33:46.399Z,100.00
2022-10-20T21:36:15.339Z,100.00
2022-10-20T21:38:43.035Z,100.00
2022-10-20T21:41:21.343Z,100.00
2022-10-20T21:43:52.742Z,100.00
2022-10-20T21:46:28.560Z,100.00
2022-10-20T21:48:59.497Z,100.00
2022-10-20T21:51:29.332Z,100.00
2022-10-20T21:54:01.380Z,100.00
2022-10-20T21:56:28.597Z,100.00
2022-10-20T21:58:55.862Z,100.00
2022-10-20T22:01:24.557Z,100.00
2022-10-20T22:03:53.035Z,100.00
2022-10-20T22:06:25.292Z,100.00
2022-10-20T22:08:54.784Z,100.00
2022-10-20T22:11:27.259Z,100.00
2022-10-20T22:13:53.982Z,100.00
2022-10-20T22:16:24.136Z,100.00
2022-10-20T22:19:05.032Z,100.00
2022-10-20T22:21:31.894Z,100.00
2022-10-20T22:23:59.604Z,100.00
2022-10-20T22:26:28.312Z,100.00
2022-10-20T22:28:55.479Z,100.00
2022-10-20T22:31:23.306Z,100.00
2022-10-20T22:33:51.439Z,100.00
2022-10-20T22:36:19.682Z,100.00
2022-10-20T22:38:46.259Z,100.00
2022-10-20T22:41:13.389Z,100.00
2022-10-20T22:43:39.876Z,100.00
2022-10-20T22:46:06.683Z,100.00
2022-10-20T22:48:33.424Z,100.00
2022-10-20T22:51:00.021Z,100.00
2022-10-20T22:53:27.224Z,100.00
2022-10-20T22:55:54.320Z,100.00
2022-10-20T22:58:23.871Z,100.00
2022-10-20T23:00:50.494Z,100.00
2022-10-20T23:03:17.177Z,100.00
2022-10-20T23:05:43.660Z,100.00
2022-10-20T23:08:10.303Z,100.00
2022-10-20T23:10:36.848Z,100.00
2022-10-20T23:13:03.375Z,100.00
2022-10-20T23:15:29.934Z,100.00
2022-10-20T23:17:56.591Z,100.00
2022-10-20T23:20:23.256Z,100.00
2022-10-20T23:22:49.779Z,100.00
2022-10-20T23:25:16.616Z,100.00
2022-10-20T23:27:43.139Z,100.00
2022-10-20T23:30:10.242Z,100.00
2022-10-20T23:32:36.775Z,100.00
2022-10-20T23:35:03.497Z,100.00
2022-10-20T23:37:30.085Z,100.00
2022-10-20T23:39:56.660Z,100.00
2022-10-20T23:42:23.305Z,100.00
2022-10-20T23:44:49.791Z,100.00
2022-10-20T23:47:16.313Z,100.00
2022-10-20T23:49:42.941Z,100.00
2022-10-20T23:52:09.503Z,100.00
2022-10-20T23:54:36.088Z,100.00
2022-10-20T23:57:02.746Z,100.00
2022-10-20T23:59:29.259Z,100.00
